sensor_id;sensor_type;location;lat;lon;timestamp;temperature;humidity
33077;DHT22;38790;51.964;5.924;2022-07-04T00:00:45;16.30;99.90
33077;DHT22;38790;51.964;5.924;2022-07-04T00:03:11;16.20;99.90
33077;DHT22;38790;51.964;5.924;2022-07-04T00:05:38;16.10;99.90
33077;DHT22;38790;51.964;5.924;2022-07-04T00:08:04;16.10;99.90
33077;DHT22;38790;51.964;5.924;2022-07-04T00:10:30;16.10;99.90
33077;DHT22;38790;51.964;5.924;2022-07-04T00:12:56;16.10;99.90
33077;DHT22;38790;51.964;5.924;2022-07-04T00:15:23;16.10;99.90
33077;DHT22;38790;51.964;5.924;2022-07-04T00:17:49;16.00;99.90
33077;DHT22;38790;51.964;5.924;2022-07-04T00:20:16;16.00;99.90
33077;DHT22;38790;51.964;5.924;2022-07-04T00:22:42;15.90;99.90
33077;DHT22;38790;51.964;5.924;2022-07-04T00:25:08;15.90;99.90
33077;DHT22;38790;51.964;5.924;2022-07-04T00:27:34;15.90;99.90
33077;DHT22;38790;51.964;5.924;2022-07-04T00:30:01;15.80;99.90
33077;DHT22;38790;51.964;5.924;2022-07-04T00:32:27;15.80;99.90
33077;DHT22;38790;51.964;5.924;2022-07-04T00:34:53;15.90;99.90
33077;DHT22;38790;51.964;5.924;2022-07-04T00:37:19;15.80;99.90
33077;DHT22;38790;51.964;5.924;2022-07-04T00:39:45;15.80;99.90
33077;DHT22;38790;51.964;5.924;2022-07-04T00:42:12;15.60;99.90
33077;DHT22;38790;51.964;5.924;2022-07-04T00:44:38;15.60;99.90
33077;DHT22;38790;51.964;5.924;2022-07-04T00:47:05;15.60;99.90
33077;DHT22;38790;51.964;5.924;2022-07-04T00:49:32;15.60;99.90
33077;DHT22;38790;51.964;5.924;2022-07-04T00:52:00;15.50;99.90
33077;DHT22;38790;51.964;5.924;2022-07-04T00:54:30;15.50;99.90
33077;DHT22;38790;51.964;5.924;2022-07-04T00:56:58;15.50;99.90
33077;DHT22;38790;51.964;5.924;2022-07-04T00:59:24;15.50;99.90
33077;DHT22;38790;51.964;5.924;2022-07-04T01:01:50;15.50;99.90
33077;DHT22;38790;51.964;5.924;2022-07-04T01:04:17;15.50;99.90
33077;DHT22;38790;51.964;5.924;2022-07-04T01:06:43;15.50;99.90
33077;DHT22;38790;51.964;5.924;2022-07-04T01:09:11;15.60;99.90
33077;DHT22;38790;51.964;5.924;2022-07-04T01:11:38;15.50;99.90
33077;DHT22;38790;51.964;5.924;2022-07-04T01:14:04;15.50;99.90
33077;DHT22;38790;51.964;5.924;2022-07-04T01:16:32;15.40;99.90
33077;DHT22;38790;51.964;5.924;2022-07-04T01:18:59;15.40;99.90
33077;DHT22;38790;51.964;5.924;2022-07-04T01:21:25;15.40;99.90
33077;DHT22;38790;51.964;5.924;2022-07-04T01:23:52;15.40;99.90
33077;DHT22;38790;51.964;5.924;2022-07-04T01:26:18;15.40;99.90
33077;DHT22;38790;51.964;5.924;2022-07-04T01:28:45;15.40;99.90
33077;DHT22;38790;51.964;5.924;2022-07-04T01:31:11;15.40;99.90
33077;DHT22;38790;51.964;5.924;2022-07-04T01:33:38;15.40;99.90
33077;DHT22;38790;51.964;5.924;2022-07-04T01:36:04;15.30;99.90
33077;DHT22;38790;51.964;5.924;2022-07-04T01:38:30;15.30;99.90
33077;DHT22;38790;51.964;5.924;2022-07-04T01:40:57;15.20;99.90
33077;DHT22;38790;51.964;5.924;2022-07-04T01:43:23;15.10;99.90
33077;DHT22;38790;51.964;5.924;2022-07-04T01:45:49;15.00;99.90
33077;DHT22;38790;51.964;5.924;2022-07-04T01:48:15;14.90;99.90
33077;DHT22;38790;51.964;5.924;2022-07-04T01:50:42;14.90;99.90
33077;DHT22;38790;51.964;5.924;2022-07-04T01:53:08;14.80;99.90
33077;DHT22;38790;51.964;5.924;2022-07-04T01:55:34;14.90;99.90
33077;DHT22;38790;51.964;5.924;2022-07-04T01:58:00;14.90;99.90
33077;DHT22;38790;51.964;5.924;2022-07-04T02:00:27;14.90;99.90
33077;DHT22;38790;51.964;5.924;2022-07-04T02:03:12;14.90;99.90
33077;DHT22;38790;51.964;5.924;2022-07-04T02:05:38;14.90;99.90
33077;DHT22;38790;51.964;5.924;2022-07-04T02:08:06;14.90;99.90
33077;DHT22;38790;51.964;5.924;2022-07-04T02:10:32;14.90;99.90
33077;DHT22;38790;51.964;5.924;2022-07-04T02:12:59;14.90;99.90
33077;DHT22;38790;51.964;5.924;2022-07-04T02:15:30;14.80;99.90
33077;DHT22;38790;51.964;5.924;2022-07-04T02:17:56;14.70;99.90
33077;DHT22;38790;51.964;5.924;2022-07-04T02:20:23;14.70;99.90
33077;DHT22;38790;51.964;5.924;2022-07-04T02:22:50;14.60;99.90
33077;DHT22;38790;51.964;5.924;2022-07-04T02:25:16;14.60;99.90
33077;DHT22;38790;51.964;5.924;2022-07-04T02:27:42;14.40;99.90
33077;DHT22;38790;51.964;5.924;2022-07-04T02:30:09;14.40;99.90
33077;DHT22;38790;51.964;5.924;2022-07-04T02:32:36;14.30;99.90
33077;DHT22;38790;51.964;5.924;2022-07-04T02:35:02;14.20;99.90
33077;DHT22;38790;51.964;5.924;2022-07-04T02:37:28;14.20;99.90
33077;DHT22;38790;51.964;5.924;2022-07-04T02:39:55;14.30;99.90
33077;DHT22;38790;51.964;5.924;2022-07-04T02:42:21;14.30;99.90
33077;DHT22;38790;51.964;5.924;2022-07-04T02:44:47;14.30;99.90
33077;DHT22;38790;51.964;5.924;2022-07-04T02:47:15;14.20;99.90
33077;DHT22;38790;51.964;5.924;2022-07-04T02:49:41;14.20;99.90
33077;DHT22;38790;51.964;5.924;2022-07-04T02:52:07;14.20;99.90
33077;DHT22;38790;51.964;5.924;2022-07-04T02:54:34;14.30;99.90
33077;DHT22;38790;51.964;5.924;2022-07-04T02:57:00;14.30;99.90
33077;DHT22;38790;51.964;5.924;2022-07-04T02:59:26;14.50;99.90
33077;DHT22;38790;51.964;5.924;2022-07-04T03:01:52;14.50;99.90
33077;DHT22;38790;51.964;5.924;2022-07-04T03:04:18;14.50;99.90
33077;DHT22;38790;51.964;5.924;2022-07-04T03:06:45;14.30;99.90
33077;DHT22;38790;51.964;5.924;2022-07-04T03:09:11;14.10;99.90
33077;DHT22;38790;51.964;5.924;2022-07-04T03:11:37;14.20;99.90
33077;DHT22;38790;51.964;5.924;2022-07-04T03:14:03;14.20;99.90
33077;DHT22;38790;51.964;5.924;2022-07-04T03:16:29;14.20;99.90
33077;DHT22;38790;51.964;5.924;2022-07-04T03:18:55;14.20;99.90
33077;DHT22;38790;51.964;5.924;2022-07-04T03:21:21;14.20;99.90
33077;DHT22;38790;51.964;5.924;2022-07-04T03:23:47;14.20;99.90
33077;DHT22;38790;51.964;5.924;2022-07-04T03:26:28;14.10;99.90
33077;DHT22;38790;51.964;5.924;2022-07-04T03:28:56;14.10;99.90
33077;DHT22;38790;51.964;5.924;2022-07-04T03:31:22;14.00;99.90
33077;DHT22;38790;51.964;5.924;2022-07-04T03:33:49;13.90;99.90
33077;DHT22;38790;51.964;5.924;2022-07-04T03:36:15;13.90;99.90
33077;DHT22;38790;51.964;5.924;2022-07-04T03:38:42;13.90;99.90
33077;DHT22;38790;51.964;5.924;2022-07-04T03:41:08;14.00;99.90
33077;DHT22;38790;51.964;5.924;2022-07-04T03:43:35;14.00;99.90
33077;DHT22;38790;51.964;5.924;2022-07-04T03:46:01;14.10;99.90
33077;DHT22;38790;51.964;5.924;2022-07-04T03:48:27;14.00;99.90
33077;DHT22;38790;51.964;5.924;2022-07-04T03:50:53;14.00;99.90
33077;DHT22;38790;51.964;5.924;2022-07-04T03:53:19;14.10;99.90
33077;DHT22;38790;51.964;5.924;2022-07-04T03:55:46;14.10;99.90
33077;DHT22;38790;51.964;5.924;2022-07-04T03:58:13;14.10;99.90
33077;DHT22;38790;51.964;5.924;2022-07-04T04:00:39;14.10;99.90
33077;DHT22;38790;51.964;5.924;2022-07-04T04:03:05;14.20;99.90
33077;DHT22;38790;51.964;5.924;2022-07-04T04:05:51;14.30;99.90
33077;DHT22;38790;51.964;5.924;2022-07-04T04:08:17;14.40;99.90
33077;DHT22;38790;51.964;5.924;2022-07-04T04:10:43;14.50;99.90
33077;DHT22;38790;51.964;5.924;2022-07-04T04:13:10;14.50;99.90
33077;DHT22;38790;51.964;5.924;2022-07-04T04:15:36;14.60;99.90
33077;DHT22;38790;51.964;5.924;2022-07-04T04:18:02;14.60;99.90
33077;DHT22;38790;51.964;5.924;2022-07-04T04:20:28;14.70;99.90
33077;DHT22;38790;51.964;5.924;2022-07-04T04:22:54;14.70;99.90
33077;DHT22;38790;51.964;5.924;2022-07-04T04:25:20;14.80;99.90
33077;DHT22;38790;51.964;5.924;2022-07-04T04:27:46;14.90;99.90
33077;DHT22;38790;51.964;5.924;2022-07-04T04:30:12;15.20;99.90
33077;DHT22;38790;51.964;5.924;2022-07-04T04:32:39;15.30;99.90
33077;DHT22;38790;51.964;5.924;2022-07-04T04:35:05;15.50;99.90
33077;DHT22;38790;51.964;5.924;2022-07-04T04:37:31;15.50;99.90
33077;DHT22;38790;51.964;5.924;2022-07-04T04:39:57;15.40;99.90
33077;DHT22;38790;51.964;5.924;2022-07-04T04:42:23;15.80;99.90
33077;DHT22;38790;51.964;5.924;2022-07-04T04:44:49;17.10;99.90
33077;DHT22;38790;51.964;5.924;2022-07-04T04:47:16;18.90;99.90
33077;DHT22;38790;51.964;5.924;2022-07-04T04:49:42;20.30;99.90
33077;DHT22;38790;51.964;5.924;2022-07-04T04:52:08;21.00;99.90
33077;DHT22;38790;51.964;5.924;2022-07-04T04:54:35;21.30;99.90
33077;DHT22;38790;51.964;5.924;2022-07-04T04:57:01;21.80;99.90
33077;DHT22;38790;51.964;5.924;2022-07-04T04:59:29;21.60;99.90
33077;DHT22;38790;51.964;5.924;2022-07-04T05:01:59;20.50;99.90
33077;DHT22;38790;51.964;5.924;2022-07-04T05:04:25;19.60;99.90
33077;DHT22;38790;51.964;5.924;2022-07-04T05:06:52;19.00;99.90
33077;DHT22;38790;51.964;5.924;2022-07-04T05:09:18;18.50;99.90
33077;DHT22;38790;51.964;5.924;2022-07-04T05:11:45;18.20;99.90
33077;DHT22;38790;51.964;5.924;2022-07-04T05:14:12;18.00;99.90
33077;DHT22;38790;51.964;5.924;2022-07-04T05:16:39;18.10;99.90
33077;DHT22;38790;51.964;5.924;2022-07-04T05:19:05;19.00;99.90
33077;DHT22;38790;51.964;5.924;2022-07-04T05:21:31;20.20;99.90
33077;DHT22;38790;51.964;5.924;2022-07-04T05:23:57;21.00;99.90
33077;DHT22;38790;51.964;5.924;2022-07-04T05:26:24;21.60;99.90
33077;DHT22;38790;51.964;5.924;2022-07-04T05:28:50;21.80;99.90
33077;DHT22;38790;51.964;5.924;2022-07-04T05:31:16;22.10;99.90
33077;DHT22;38790;51.964;5.924;2022-07-04T05:33:42;22.10;99.90
33077;DHT22;38790;51.964;5.924;2022-07-04T05:36:08;21.90;99.90
33077;DHT22;38790;51.964;5.924;2022-07-04T05:38:35;21.70;99.90
33077;DHT22;38790;51.964;5.924;2022-07-04T05:41:01;21.60;99.90
33077;DHT22;38790;51.964;5.924;2022-07-04T05:43:27;21.50;99.90
33077;DHT22;38790;51.964;5.924;2022-07-04T05:45:53;21.40;99.90
33077;DHT22;38790;51.964;5.924;2022-07-04T05:48:19;21.20;99.90
33077;DHT22;38790;51.964;5.924;2022-07-04T05:50:46;21.30;99.90
33077;DHT22;38790;51.964;5.924;2022-07-04T05:53:12;21.70;99.90
33077;DHT22;38790;51.964;5.924;2022-07-04T05:55:38;21.70;99.90
33077;DHT22;38790;51.964;5.924;2022-07-04T05:58:04;21.60;99.90
33077;DHT22;38790;51.964;5.924;2022-07-04T06:00:30;21.50;99.90
33077;DHT22;38790;51.964;5.924;2022-07-04T06:02:56;21.40;99.90
33077;DHT22;38790;51.964;5.924;2022-07-04T06:05:23;21.50;99.90
33077;DHT22;38790;51.964;5.924;2022-07-04T06:07:49;21.70;99.90
33077;DHT22;38790;51.964;5.924;2022-07-04T06:10:15;21.90;99.90
33077;DHT22;38790;51.964;5.924;2022-07-04T06:12:41;21.70;99.90
33077;DHT22;38790;51.964;5.924;2022-07-04T06:15:07;21.60;99.90
33077;DHT22;38790;51.964;5.924;2022-07-04T06:17:36;22.00;99.90
33077;DHT22;38790;51.964;5.924;2022-07-04T06:20:03;22.60;99.90
33077;DHT22;38790;51.964;5.924;2022-07-04T06:22:39;22.70;99.90
33077;DHT22;38790;51.964;5.924;2022-07-04T06:25:06;22.50;99.90
33077;DHT22;38790;51.964;5.924;2022-07-04T06:27:32;21.90;99.90
33077;DHT22;38790;51.964;5.924;2022-07-04T06:29:58;21.50;99.90
33077;DHT22;38790;51.964;5.924;2022-07-04T06:32:26;21.30;99.90
33077;DHT22;38790;51.964;5.924;2022-07-04T06:34:52;21.50;99.90
33077;DHT22;38790;51.964;5.924;2022-07-04T06:37:36;21.60;99.90
33077;DHT22;38790;51.964;5.924;2022-07-04T06:40:03;21.50;99.90
33077;DHT22;38790;51.964;5.924;2022-07-04T06:42:29;21.70;99.90
33077;DHT22;38790;51.964;5.924;2022-07-04T06:44:55;22.00;99.90
33077;DHT22;38790;51.964;5.924;2022-07-04T06:47:21;22.30;99.90
33077;DHT22;38790;51.964;5.924;2022-07-04T06:49:47;22.60;99.90
33077;DHT22;38790;51.964;5.924;2022-07-04T06:52:13;22.40;99.90
33077;DHT22;38790;51.964;5.924;2022-07-04T06:54:39;21.90;99.90
33077;DHT22;38790;51.964;5.924;2022-07-04T06:57:05;21.80;99.90
33077;DHT22;38790;51.964;5.924;2022-07-04T06:59:31;21.80;99.90
33077;DHT22;38790;51.964;5.924;2022-07-04T07:01:57;21.60;99.90
33077;DHT22;38790;51.964;5.924;2022-07-04T07:04:23;21.60;99.90
33077;DHT22;38790;51.964;5.924;2022-07-04T07:06:49;21.90;99.90
33077;DHT22;38790;51.964;5.924;2022-07-04T07:09:15;21.80;99.90
33077;DHT22;38790;51.964;5.924;2022-07-04T07:11:42;21.80;99.90
33077;DHT22;38790;51.964;5.924;2022-07-04T07:14:08;21.90;99.90
33077;DHT22;38790;51.964;5.924;2022-07-04T07:16:34;22.00;99.90
33077;DHT22;38790;51.964;5.924;2022-07-04T07:19:00;22.10;99.90
33077;DHT22;38790;51.964;5.924;2022-07-04T07:21:26;21.90;99.90
33077;DHT22;38790;51.964;5.924;2022-07-04T07:23:54;21.70;99.90
33077;DHT22;38790;51.964;5.924;2022-07-04T07:26:20;21.50;99.90
33077;DHT22;38790;51.964;5.924;2022-07-04T07:28:46;21.50;99.90
33077;DHT22;38790;51.964;5.924;2022-07-04T07:31:12;21.60;99.90
33077;DHT22;38790;51.964;5.924;2022-07-04T07:33:38;21.60;99.90
33077;DHT22;38790;51.964;5.924;2022-07-04T07:36:04;21.80;99.90
33077;DHT22;38790;51.964;5.924;2022-07-04T07:38:30;21.80;99.90
33077;DHT22;38790;51.964;5.924;2022-07-04T07:40:57;21.90;99.90
33077;DHT22;38790;51.964;5.924;2022-07-04T07:43:23;21.70;99.90
33077;DHT22;38790;51.964;5.924;2022-07-04T07:45:49;21.90;99.90
33077;DHT22;38790;51.964;5.924;2022-07-04T07:48:15;22.60;99.90
33077;DHT22;38790;51.964;5.924;2022-07-04T07:50:41;23.00;99.90
33077;DHT22;38790;51.964;5.924;2022-07-04T07:53:07;23.40;99.90
33077;DHT22;38790;51.964;5.924;2022-07-04T07:55:33;23.60;99.90
33077;DHT22;38790;51.964;5.924;2022-07-04T07:57:59;23.80;99.90
33077;DHT22;38790;51.964;5.924;2022-07-04T08:00:27;24.20;99.90
33077;DHT22;38790;51.964;5.924;2022-07-04T08:02:53;24.40;99.90
33077;DHT22;38790;51.964;5.924;2022-07-04T08:05:38;24.60;99.90
33077;DHT22;38790;51.964;5.924;2022-07-04T08:08:05;24.90;99.90
33077;DHT22;38790;51.964;5.924;2022-07-04T08:10:33;25.10;99.90
33077;DHT22;38790;51.964;5.924;2022-07-04T08:12:59;25.30;99.90
33077;DHT22;38790;51.964;5.924;2022-07-04T08:15:25;25.30;99.90
33077;DHT22;38790;51.964;5.924;2022-07-04T08:17:51;25.40;99.90
33077;DHT22;38790;51.964;5.924;2022-07-04T08:20:19;25.00;99.90
33077;DHT22;38790;51.964;5.924;2022-07-04T08:22:45;24.60;99.90
33077;DHT22;38790;51.964;5.924;2022-07-04T08:25:12;24.40;99.90
33077;DHT22;38790;51.964;5.924;2022-07-04T08:27:41;24.40;99.90
33077;DHT22;38790;51.964;5.924;2022-07-04T08:30:07;24.40;99.90
33077;DHT22;38790;51.964;5.924;2022-07-04T08:32:34;24.10;99.90
33077;DHT22;38790;51.964;5.924;2022-07-04T08:35:01;24.10;99.90
33077;DHT22;38790;51.964;5.924;2022-07-04T08:37:27;23.90;99.90
33077;DHT22;38790;51.964;5.924;2022-07-04T08:39:54;24.10;99.90
33077;DHT22;38790;51.964;5.924;2022-07-04T08:42:22;24.60;99.90
33077;DHT22;38790;51.964;5.924;2022-07-04T08:44:50;24.80;99.90
33077;DHT22;38790;51.964;5.924;2022-07-04T08:47:21;24.70;99.90
33077;DHT22;38790;51.964;5.924;2022-07-04T08:49:54;24.60;99.90
33077;DHT22;38790;51.964;5.924;2022-07-04T08:52:34;24.40;99.90
33077;DHT22;38790;51.964;5.924;2022-07-04T08:55:02;24.60;99.90
33077;DHT22;38790;51.964;5.924;2022-07-04T08:57:48;24.80;99.90
33077;DHT22;38790;51.964;5.924;2022-07-04T09:00:35;24.70;99.90
33077;DHT22;38790;51.964;5.924;2022-07-04T09:03:03;24.80;99.90
33077;DHT22;38790;51.964;5.924;2022-07-04T09:05:30;24.40;99.90
33077;DHT22;38790;51.964;5.924;2022-07-04T09:07:58;24.40;99.90
33077;DHT22;38790;51.964;5.924;2022-07-04T09:10:25;24.90;99.90
33077;DHT22;38790;51.964;5.924;2022-07-04T09:12:51;25.30;99.90
33077;DHT22;38790;51.964;5.924;2022-07-04T09:15:18;25.80;99.90
33077;DHT22;38790;51.964;5.924;2022-07-04T09:17:45;25.60;99.90
33077;DHT22;38790;51.964;5.924;2022-07-04T09:20:19;25.20;99.90
33077;DHT22;38790;51.964;5.924;2022-07-04T09:22:48;24.80;99.90
33077;DHT22;38790;51.964;5.924;2022-07-04T09:25:15;24.50;99.90
33077;DHT22;38790;51.964;5.924;2022-07-04T09:27:44;24.20;99.90
33077;DHT22;38790;51.964;5.924;2022-07-04T09:30:12;23.90;99.90
33077;DHT22;38790;51.964;5.924;2022-07-04T09:32:46;24.40;99.90
33077;DHT22;38790;51.964;5.924;2022-07-04T09:35:16;25.30;99.90
33077;DHT22;38790;51.964;5.924;2022-07-04T09:37:45;25.50;99.90
33077;DHT22;38790;51.964;5.924;2022-07-04T09:40:28;25.60;99.90
33077;DHT22;38790;51.964;5.924;2022-07-04T09:42:56;25.20;99.90
33077;DHT22;38790;51.964;5.924;2022-07-04T09:45:24;24.80;99.90
33077;DHT22;38790;51.964;5.924;2022-07-04T09:47:54;24.50;99.90
33077;DHT22;38790;51.964;5.924;2022-07-04T09:50:22;24.10;99.90
33077;DHT22;38790;51.964;5.924;2022-07-04T09:52:53;23.90;99.90
33077;DHT22;38790;51.964;5.924;2022-07-04T09:55:21;23.50;99.90
33077;DHT22;38790;51.964;5.924;2022-07-04T09:57:48;23.70;99.90
33077;DHT22;38790;51.964;5.924;2022-07-04T10:02:43;24.90;99.90
33077;DHT22;38790;51.964;5.924;2022-07-04T10:05:10;25.20;99.90
33077;DHT22;38790;51.964;5.924;2022-07-04T10:07:37;25.60;99.90
33077;DHT22;38790;51.964;5.924;2022-07-04T10:12:54;25.70;99.90
33077;DHT22;38790;51.964;5.924;2022-07-04T10:15:21;25.00;99.90
33077;DHT22;38790;51.964;5.924;2022-07-04T10:17:48;25.10;99.90
33077;DHT22;38790;51.964;5.924;2022-07-04T10:20:14;25.40;99.90
33077;DHT22;38790;51.964;5.924;2022-07-04T10:22:41;25.40;99.90
33077;DHT22;38790;51.964;5.924;2022-07-04T10:25:09;25.30;99.90
33077;DHT22;38790;51.964;5.924;2022-07-04T10:27:36;25.00;99.90
33077;DHT22;38790;51.964;5.924;2022-07-04T10:30:06;24.60;99.90
33077;DHT22;38790;51.964;5.924;2022-07-04T10:32:34;24.50;99.90
33077;DHT22;38790;51.964;5.924;2022-07-04T10:35:01;24.80;99.90
33077;DHT22;38790;51.964;5.924;2022-07-04T10:37:59;24.90;99.90
33077;DHT22;38790;51.964;5.924;2022-07-04T10:40:51;25.00;99.90
33077;DHT22;38790;51.964;5.924;2022-07-04T10:46:43;25.00;99.90
33077;DHT22;38790;51.964;5.924;2022-07-04T10:48:50;24.80;99.90
33077;DHT22;38790;51.964;5.924;2022-07-04T10:51:35;24.50;99.90
33077;DHT22;38790;51.964;5.924;2022-07-04T10:54:21;24.10;99.90
33077;DHT22;38790;51.964;5.924;2022-07-04T10:56:49;23.90;99.90
33077;DHT22;38790;51.964;5.924;2022-07-04T10:59:29;23.80;99.90
33077;DHT22;38790;51.964;5.924;2022-07-04T11:04:47;23.90;99.90
33077;DHT22;38790;51.964;5.924;2022-07-04T11:07:15;24.20;99.90
33077;DHT22;38790;51.964;5.924;2022-07-04T11:09:42;25.00;99.90
33077;DHT22;38790;51.964;5.924;2022-07-04T11:12:12;25.50;99.90
33077;DHT22;38790;51.964;5.924;2022-07-04T11:14:45;26.20;99.90
33077;DHT22;38790;51.964;5.924;2022-07-04T11:19:45;27.20;99.90
33077;DHT22;38790;51.964;5.924;2022-07-04T11:22:12;27.20;99.90
33077;DHT22;38790;51.964;5.924;2022-07-04T11:24:46;26.80;99.90
33077;DHT22;38790;51.964;5.924;2022-07-04T11:27:14;26.60;99.90
33077;DHT22;38790;51.964;5.924;2022-07-04T11:29:49;26.30;99.90
33077;DHT22;38790;51.964;5.924;2022-07-04T11:32:16;26.00;99.90
33077;DHT22;38790;51.964;5.924;2022-07-04T11:34:42;26.20;99.90
33077;DHT22;38790;51.964;5.924;2022-07-04T11:37:08;26.40;99.90
33077;DHT22;38790;51.964;5.924;2022-07-04T11:39:34;26.60;99.90
33077;DHT22;38790;51.964;5.924;2022-07-04T11:42:00;26.40;99.90
33077;DHT22;38790;51.964;5.924;2022-07-04T11:44:45;26.40;99.90
33077;DHT22;38790;51.964;5.924;2022-07-04T11:47:41;26.50;99.90
33077;DHT22;38790;51.964;5.924;2022-07-04T11:50:12;26.60;99.90
33077;DHT22;38790;51.964;5.924;2022-07-04T11:52:44;26.20;99.90
33077;DHT22;38790;51.964;5.924;2022-07-04T11:55:13;25.90;99.90
33077;DHT22;38790;51.964;5.924;2022-07-04T11:57:47;26.20;99.90
33077;DHT22;38790;51.964;5.924;2022-07-04T12:00:15;26.20;99.90
33077;DHT22;38790;51.964;5.924;2022-07-04T12:02:42;26.20;99.90
33077;DHT22;38790;51.964;5.924;2022-07-04T12:05:10;26.30;99.90
33077;DHT22;38790;51.964;5.924;2022-07-04T12:07:42;26.10;99.90
33077;DHT22;38790;51.964;5.924;2022-07-04T12:10:22;25.70;99.90
33077;DHT22;38790;51.964;5.924;2022-07-04T12:15:23;25.60;99.90
33077;DHT22;38790;51.964;5.924;2022-07-04T12:17:51;25.70;99.90
33077;DHT22;38790;51.964;5.924;2022-07-04T12:20:18;25.80;99.90
33077;DHT22;38790;51.964;5.924;2022-07-04T12:25:25;26.00;99.90
33077;DHT22;38790;51.964;5.924;2022-07-04T12:30:23;25.90;99.90
33077;DHT22;38790;51.964;5.924;2022-07-04T12:32:51;26.00;99.90
33077;DHT22;38790;51.964;5.924;2022-07-04T12:38:10;25.80;99.90
33077;DHT22;38790;51.964;5.924;2022-07-04T12:40:49;25.90;99.90
33077;DHT22;38790;51.964;5.924;2022-07-04T12:43:16;25.80;99.90
33077;DHT22;38790;51.964;5.924;2022-07-04T12:45:47;25.80;99.90
33077;DHT22;38790;51.964;5.924;2022-07-04T12:48:36;25.70;99.90
33077;DHT22;38790;51.964;5.924;2022-07-04T12:53:50;25.20;99.90
33077;DHT22;38790;51.964;5.924;2022-07-04T12:56:31;25.40;99.90
33077;DHT22;38790;51.964;5.924;2022-07-04T13:01:34;25.70;99.90
33077;DHT22;38790;51.964;5.924;2022-07-04T13:04:01;25.90;99.90
33077;DHT22;38790;51.964;5.924;2022-07-04T13:06:27;26.00;99.90
33077;DHT22;38790;51.964;5.924;2022-07-04T13:08:54;26.00;99.90
33077;DHT22;38790;51.964;5.924;2022-07-04T13:11:21;25.80;99.90
33077;DHT22;38790;51.964;5.924;2022-07-04T13:14:05;25.90;99.90
33077;DHT22;38790;51.964;5.924;2022-07-04T13:16:31;26.10;99.90
33077;DHT22;38790;51.964;5.924;2022-07-04T13:18:58;26.00;99.90
33077;DHT22;38790;51.964;5.924;2022-07-04T13:21:24;25.90;99.90
33077;DHT22;38790;51.964;5.924;2022-07-04T13:23:52;25.90;99.90
33077;DHT22;38790;51.964;5.924;2022-07-04T13:26:18;26.00;99.90
33077;DHT22;38790;51.964;5.924;2022-07-04T13:28:44;26.10;99.90
33077;DHT22;38790;51.964;5.924;2022-07-04T13:31:11;26.00;99.90
33077;DHT22;38790;51.964;5.924;2022-07-04T13:33:37;25.80;99.90
33077;DHT22;38790;51.964;5.924;2022-07-04T13:36:04;25.90;99.90
33077;DHT22;38790;51.964;5.924;2022-07-04T13:38:30;25.90;99.90
33077;DHT22;38790;51.964;5.924;2022-07-04T13:40:56;26.00;99.90
33077;DHT22;38790;51.964;5.924;2022-07-04T13:43:24;26.00;99.90
33077;DHT22;38790;51.964;5.924;2022-07-04T13:45:50;25.90;99.90
33077;DHT22;38790;51.964;5.924;2022-07-04T13:48:16;26.10;99.90
33077;DHT22;38790;51.964;5.924;2022-07-04T13:50:43;26.30;99.90
33077;DHT22;38790;51.964;5.924;2022-07-04T13:53:09;26.20;99.90
33077;DHT22;38790;51.964;5.924;2022-07-04T13:55:35;26.10;99.90
33077;DHT22;38790;51.964;5.924;2022-07-04T13:58:06;25.90;99.90
33077;DHT22;38790;51.964;5.924;2022-07-04T14:00:33;26.00;99.90
33077;DHT22;38790;51.964;5.924;2022-07-04T14:02:59;25.90;99.90
33077;DHT22;38790;51.964;5.924;2022-07-04T14:05:26;26.00;99.90
33077;DHT22;38790;51.964;5.924;2022-07-04T14:07:52;26.10;99.90
33077;DHT22;38790;51.964;5.924;2022-07-04T14:10:19;25.90;99.90
33077;DHT22;38790;51.964;5.924;2022-07-04T14:12:45;25.90;99.90
33077;DHT22;38790;51.964;5.924;2022-07-04T14:15:12;25.90;99.90
33077;DHT22;38790;51.964;5.924;2022-07-04T14:17:38;25.90;99.90
33077;DHT22;38790;51.964;5.924;2022-07-04T14:20:06;25.90;99.90
33077;DHT22;38790;51.964;5.924;2022-07-04T14:22:38;26.00;99.90
33077;DHT22;38790;51.964;5.924;2022-07-04T14:25:05;26.10;99.90
33077;DHT22;38790;51.964;5.924;2022-07-04T14:27:32;26.00;99.90
33077;DHT22;38790;51.964;5.924;2022-07-04T14:29:58;26.10;99.90
33077;DHT22;38790;51.964;5.924;2022-07-04T14:32:24;26.10;99.90
33077;DHT22;38790;51.964;5.924;2022-07-04T14:34:51;26.00;99.90
33077;DHT22;38790;51.964;5.924;2022-07-04T14:37:17;25.90;99.90
33077;DHT22;38790;51.964;5.924;2022-07-04T14:39:43;25.90;99.90
33077;DHT22;38790;51.964;5.924;2022-07-04T14:42:09;25.90;99.90
33077;DHT22;38790;51.964;5.924;2022-07-04T14:44:35;25.80;99.90
33077;DHT22;38790;51.964;5.924;2022-07-04T14:47:07;25.80;99.90
33077;DHT22;38790;51.964;5.924;2022-07-04T14:49:33;25.90;99.90
33077;DHT22;38790;51.964;5.924;2022-07-04T14:52:00;25.80;99.90
33077;DHT22;38790;51.964;5.924;2022-07-04T14:54:26;25.50;99.90
33077;DHT22;38790;51.964;5.924;2022-07-04T14:56:53;25.60;99.90
33077;DHT22;38790;51.964;5.924;2022-07-04T14:59:19;25.70;99.90
33077;DHT22;38790;51.964;5.924;2022-07-04T15:01:45;25.70;99.90
33077;DHT22;38790;51.964;5.924;2022-07-04T15:04:11;25.70;99.90
33077;DHT22;38790;51.964;5.924;2022-07-04T15:06:37;25.80;99.90
33077;DHT22;38790;51.964;5.924;2022-07-04T15:09:04;25.60;99.90
33077;DHT22;38790;51.964;5.924;2022-07-04T15:11:34;25.50;99.90
33077;DHT22;38790;51.964;5.924;2022-07-04T15:14:01;25.40;99.90
33077;DHT22;38790;51.964;5.924;2022-07-04T15:16:27;25.60;99.90
33077;DHT22;38790;51.964;5.924;2022-07-04T15:18:53;25.70;99.90
33077;DHT22;38790;51.964;5.924;2022-07-04T15:21:20;25.70;99.90
33077;DHT22;38790;51.964;5.924;2022-07-04T15:24:05;25.80;99.90
33077;DHT22;38790;51.964;5.924;2022-07-04T15:26:42;25.80;99.90
33077;DHT22;38790;51.964;5.924;2022-07-04T15:29:08;25.50;99.90
33077;DHT22;38790;51.964;5.924;2022-07-04T15:31:34;25.30;99.90
33077;DHT22;38790;51.964;5.924;2022-07-04T15:34:00;25.10;99.90
33077;DHT22;38790;51.964;5.924;2022-07-04T15:36:26;25.10;99.90
33077;DHT22;38790;51.964;5.924;2022-07-04T15:38:53;25.30;99.90
33077;DHT22;38790;51.964;5.924;2022-07-04T15:41:19;25.60;99.90
33077;DHT22;38790;51.964;5.924;2022-07-04T15:43:45;25.60;99.90
33077;DHT22;38790;51.964;5.924;2022-07-04T15:46:11;25.60;99.90
33077;DHT22;38790;51.964;5.924;2022-07-04T15:48:38;25.50;99.90
33077;DHT22;38790;51.964;5.924;2022-07-04T15:51:04;25.50;99.90
33077;DHT22;38790;51.964;5.924;2022-07-04T15:53:31;25.70;99.90
33077;DHT22;38790;51.964;5.924;2022-07-04T15:55:57;25.60;99.90
33077;DHT22;38790;51.964;5.924;2022-07-04T15:58:23;25.50;99.90
33077;DHT22;38790;51.964;5.924;2022-07-04T16:00:49;25.30;99.90
33077;DHT22;38790;51.964;5.924;2022-07-04T16:03:15;25.20;99.90